sensor_id;sensor_type;location;lat;lon;timestamp;P1;durP1;ratioP1;P2;durP2;ratioP2
9224;SDS011;4647;48.072;11.616;2023-03-19T00:00:46;12.00;;;7.27;;
9224;SDS011;4647;48.072;11.616;2023-03-19T00:03:15;12.70;;;7.70;;
9224;SDS011;4647;48.072;11.616;2023-03-19T00:05:49;12.67;;;8.20;;
9224;SDS011;4647;48.072;11.616;2023-03-19T00:08:17;10.97;;;7.70;;
9224;SDS011;4647;48.072;11.616;2023-03-19T00:10:46;9.57;;;7.73;;
9224;SDS011;4647;48.072;11.616;2023-03-19T00:13:18;10.87;;;7.80;;
9224;SDS011;4647;48.072;11.616;2023-03-19T00:15:47;13.13;;;8.50;;
9224;SDS011;4647;48.072;11.616;2023-03-19T00:18:16;10.27;;;7.87;;
9224;SDS011;4647;48.072;11.616;2023-03-19T00:20:44;10.53;;;7.90;;
9224;SDS011;4647;48.072;11.616;2023-03-19T00:23:13;11.50;;;7.87;;
9224;SDS011;4647;48.072;11.616;2023-03-19T00:25:42;10.23;;;7.50;;
9224;SDS011;4647;48.072;11.616;2023-03-19T00:28:11;11.03;;;7.47;;
9224;SDS011;4647;48.072;11.616;2023-03-19T00:30:42;9.83;;;6.77;;
9224;SDS011;4647;48.072;11.616;2023-03-19T00:33:10;11.33;;;7.50;;
9224;SDS011;4647;48.072;11.616;2023-03-19T00:35:39;11.00;;;7.33;;
9224;SDS011;4647;48.072;11.616;2023-03-19T00:38:07;8.17;;;7.03;;
9224;SDS011;4647;48.072;11.616;2023-03-19T00:40:36;9.17;;;6.87;;
9224;SDS011;4647;48.072;11.616;2023-03-19T00:43:05;9.60;;;6.90;;
9224;SDS011;4647;48.072;11.616;2023-03-19T00:45:33;10.57;;;7.23;;
9224;SDS011;4647;48.072;11.616;2023-03-19T00:48:05;12.17;;;7.67;;
9224;SDS011;4647;48.072;11.616;2023-03-19T00:50:33;7.97;;;6.50;;
9224;SDS011;4647;48.072;11.616;2023-03-19T00:53:02;9.00;;;7.00;;
9224;SDS011;4647;48.072;11.616;2023-03-19T00:55:30;11.67;;;7.27;;
9224;SDS011;4647;48.072;11.616;2023-03-19T00:57:59;12.67;;;7.20;;
9224;SDS011;4647;48.072;11.616;2023-03-19T01:00:27;10.97;;;7.17;;
9224;SDS011;4647;48.072;11.616;2023-03-19T01:02:57;11.93;;;7.83;;
9224;SDS011;4647;48.072;11.616;2023-03-19T01:05:28;11.47;;;6.77;;
9224;SDS011;4647;48.072;11.616;2023-03-19T01:07:57;8.23;;;6.97;;
9224;SDS011;4647;48.072;11.616;2023-03-19T01:10:26;11.70;;;7.80;;
9224;SDS011;4647;48.072;11.616;2023-03-19T01:12:55;11.17;;;7.40;;
9224;SDS011;4647;48.072;11.616;2023-03-19T01:15:23;13.87;;;7.77;;
9224;SDS011;4647;48.072;11.616;2023-03-19T01:17:52;14.20;;;7.87;;
9224;SDS011;4647;48.072;11.616;2023-03-19T01:20:20;11.17;;;7.63;;
9224;SDS011;4647;48.072;11.616;2023-03-19T01:22:51;12.17;;;7.40;;
9224;SDS011;4647;48.072;11.616;2023-03-19T01:25:20;12.57;;;7.83;;
9224;SDS011;4647;48.072;11.616;2023-03-19T01:27:49;12.83;;;7.33;;
9224;SDS011;4647;48.072;11.616;2023-03-19T01:30:18;14.60;;;8.63;;
9224;SDS011;4647;48.072;11.616;2023-03-19T01:32:47;12.83;;;7.23;;
9224;SDS011;4647;48.072;11.616;2023-03-19T01:35:16;13.37;;;7.17;;
9224;SDS011;4647;48.072;11.616;2023-03-19T01:37:45;10.07;;;7.03;;
9224;SDS011;4647;48.072;11.616;2023-03-19T01:40:16;10.07;;;7.13;;
9224;SDS011;4647;48.072;11.616;2023-03-19T01:42:52;12.83;;;7.50;;
9224;SDS011;4647;48.072;11.616;2023-03-19T01:45:29;10.40;;;7.00;;
9224;SDS011;4647;48.072;11.616;2023-03-19T01:47:59;8.93;;;6.60;;
9224;SDS011;4647;48.072;11.616;2023-03-19T01:50:29;9.43;;;6.93;;
9224;SDS011;4647;48.072;11.616;2023-03-19T01:53:04;12.67;;;6.67;;
9224;SDS011;4647;48.072;11.616;2023-03-19T01:55:36;10.57;;;6.60;;
9224;SDS011;4647;48.072;11.616;2023-03-19T01:58:06;11.33;;;6.77;;
9224;SDS011;4647;48.072;11.616;2023-03-19T02:00:36;10.17;;;6.90;;
9224;SDS011;4647;48.072;11.616;2023-03-19T02:03:06;10.63;;;6.90;;
9224;SDS011;4647;48.072;11.616;2023-03-19T02:05:34;9.77;;;6.63;;
9224;SDS011;4647;48.072;11.616;2023-03-19T02:08:06;11.53;;;6.43;;
9224;SDS011;4647;48.072;11.616;2023-03-19T02:10:40;11.90;;;7.37;;
9224;SDS011;4647;48.072;11.616;2023-03-19T02:13:11;7.73;;;6.70;;
9224;SDS011;4647;48.072;11.616;2023-03-19T02:15:40;13.60;;;7.07;;
9224;SDS011;4647;48.072;11.616;2023-03-19T02:18:08;11.17;;;7.00;;
9224;SDS011;4647;48.072;11.616;2023-03-19T02:20:40;7.33;;;6.53;;
9224;SDS011;4647;48.072;11.616;2023-03-19T02:23:18;15.77;;;7.53;;
9224;SDS011;4647;48.072;11.616;2023-03-19T02:25:57;8.70;;;6.40;;
9224;SDS011;4647;48.072;11.616;2023-03-19T02:28:29;10.10;;;6.70;;
9224;SDS011;4647;48.072;11.616;2023-03-19T02:31:00;10.30;;;6.63;;
9224;SDS011;4647;48.072;11.616;2023-03-19T02:33:29;11.30;;;6.67;;
9224;SDS011;4647;48.072;11.616;2023-03-19T02:35:57;9.53;;;7.10;;
9224;SDS011;4647;48.072;11.616;2023-03-19T02:38:26;10.87;;;6.60;;
9224;SDS011;4647;48.072;11.616;2023-03-19T02:41:02;12.97;;;6.57;;
9224;SDS011;4647;48.072;11.616;2023-03-19T02:43:32;11.03;;;6.83;;
9224;SDS011;4647;48.072;11.616;2023-03-19T02:46:03;10.67;;;6.20;;
9224;SDS011;4647;48.072;11.616;2023-03-19T02:48:33;8.63;;;6.80;;
9224;SDS011;4647;48.072;11.616;2023-03-19T02:51:02;7.50;;;6.53;;
9224;SDS011;4647;48.072;11.616;2023-03-19T02:53:31;8.87;;;6.70;;
9224;SDS011;4647;48.072;11.616;2023-03-19T02:56:02;9.80;;;6.43;;
9224;SDS011;4647;48.072;11.616;2023-03-19T02:58:31;10.27;;;6.73;;
9224;SDS011;4647;48.072;11.616;2023-03-19T03:01:00;11.73;;;7.17;;
9224;SDS011;4647;48.072;11.616;2023-03-19T03:03:29;10.33;;;6.30;;
9224;SDS011;4647;48.072;11.616;2023-03-19T03:05:58;9.20;;;6.50;;
9224;SDS011;4647;48.072;11.616;2023-03-19T03:08:26;9.50;;;7.27;;
9224;SDS011;4647;48.072;11.616;2023-03-19T03:10:55;10.30;;;6.00;;
9224;SDS011;4647;48.072;11.616;2023-03-19T03:13:26;9.17;;;5.87;;
9224;SDS011;4647;48.072;11.616;2023-03-19T03:15:55;13.43;;;7.27;;
9224;SDS011;4647;48.072;11.616;2023-03-19T03:18:24;10.27;;;6.63;;
9224;SDS011;4647;48.072;11.616;2023-03-19T03:20:52;8.20;;;5.87;;
9224;SDS011;4647;48.072;11.616;2023-03-19T03:23:21;10.10;;;6.47;;
9224;SDS011;4647;48.072;11.616;2023-03-19T03:25:50;10.43;;;6.53;;
9224;SDS011;4647;48.072;11.616;2023-03-19T03:28:19;10.80;;;6.00;;
9224;SDS011;4647;48.072;11.616;2023-03-19T03:30:56;8.33;;;5.90;;
9224;SDS011;4647;48.072;11.616;2023-03-19T03:33:26;9.20;;;6.40;;
9224;SDS011;4647;48.072;11.616;2023-03-19T03:35:54;8.43;;;5.97;;
9224;SDS011;4647;48.072;11.616;2023-03-19T03:38:23;7.00;;;5.83;;
9224;SDS011;4647;48.072;11.616;2023-03-19T03:40:52;8.83;;;5.90;;
9224;SDS011;4647;48.072;11.616;2023-03-19T03:43:20;8.93;;;6.00;;
9224;SDS011;4647;48.072;11.616;2023-03-19T03:45:52;8.57;;;5.90;;
9224;SDS011;4647;48.072;11.616;2023-03-19T03:48:20;7.83;;;6.10;;
9224;SDS011;4647;48.072;11.616;2023-03-19T03:50:50;8.90;;;6.10;;
9224;SDS011;4647;48.072;11.616;2023-03-19T03:53:18;9.77;;;6.00;;
9224;SDS011;4647;48.072;11.616;2023-03-19T03:55:47;9.03;;;5.63;;
9224;SDS011;4647;48.072;11.616;2023-03-19T03:58:16;8.33;;;5.57;;
9224;SDS011;4647;48.072;11.616;2023-03-19T04:00:44;9.57;;;5.90;;
9224;SDS011;4647;48.072;11.616;2023-03-19T04:03:15;6.97;;;5.50;;
9224;SDS011;4647;48.072;11.616;2023-03-19T04:05:44;9.47;;;5.23;;
9224;SDS011;4647;48.072;11.616;2023-03-19T04:08:13;7.43;;;5.33;;
9224;SDS011;4647;48.072;11.616;2023-03-19T04:10:42;6.77;;;5.20;;
9224;SDS011;4647;48.072;11.616;2023-03-19T04:13:10;5.80;;;5.00;;
9224;SDS011;4647;48.072;11.616;2023-03-19T04:15:40;6.33;;;4.80;;
9224;SDS011;4647;48.072;11.616;2023-03-19T04:18:09;9.33;;;5.63;;
9224;SDS011;4647;48.072;11.616;2023-03-19T04:20:40;7.07;;;5.20;;
9224;SDS011;4647;48.072;11.616;2023-03-19T04:23:09;9.43;;;6.00;;
9224;SDS011;4647;48.072;11.616;2023-03-19T04:25:37;11.20;;;6.03;;
9224;SDS011;4647;48.072;11.616;2023-03-19T04:28:07;9.67;;;5.97;;
9224;SDS011;4647;48.072;11.616;2023-03-19T04:30:35;13.33;;;6.23;;
9224;SDS011;4647;48.072;11.616;2023-03-19T04:33:04;9.90;;;6.27;;
9224;SDS011;4647;48.072;11.616;2023-03-19T04:35:32;10.57;;;6.03;;
9224;SDS011;4647;48.072;11.616;2023-03-19T04:38:04;7.50;;;5.63;;
9224;SDS011;4647;48.072;11.616;2023-03-19T04:40:33;8.57;;;6.00;;
9224;SDS011;4647;48.072;11.616;2023-03-19T04:43:01;9.23;;;5.80;;
9224;SDS011;4647;48.072;11.616;2023-03-19T04:45:30;7.30;;;5.93;;
9224;SDS011;4647;48.072;11.616;2023-03-19T04:47:58;8.57;;;5.73;;
9224;SDS011;4647;48.072;11.616;2023-03-19T04:50:27;6.67;;;5.77;;
9224;SDS011;4647;48.072;11.616;2023-03-19T04:52:56;10.67;;;6.50;;
9224;SDS011;4647;48.072;11.616;2023-03-19T04:55:27;10.77;;;6.67;;
9224;SDS011;4647;48.072;11.616;2023-03-19T04:57:55;8.23;;;6.70;;
9224;SDS011;4647;48.072;11.616;2023-03-19T05:00:24;10.83;;;6.83;;
9224;SDS011;4647;48.072;11.616;2023-03-19T05:02:54;9.23;;;6.20;;
9224;SDS011;4647;48.072;11.616;2023-03-19T05:05:23;11.27;;;6.73;;
9224;SDS011;4647;48.072;11.616;2023-03-19T05:07:51;9.83;;;6.43;;
9224;SDS011;4647;48.072;11.616;2023-03-19T05:10:21;9.63;;;6.67;;
9224;SDS011;4647;48.072;11.616;2023-03-19T05:12:52;7.40;;;6.10;;
9224;SDS011;4647;48.072;11.616;2023-03-19T05:15:21;7.23;;;5.90;;
9224;SDS011;4647;48.072;11.616;2023-03-19T05:17:49;8.50;;;6.57;;
9224;SDS011;4647;48.072;11.616;2023-03-19T05:20:18;10.70;;;6.53;;
9224;SDS011;4647;48.072;11.616;2023-03-19T05:22:47;10.33;;;6.10;;
9224;SDS011;4647;48.072;11.616;2023-03-19T05:25:16;10.67;;;6.40;;
9224;SDS011;4647;48.072;11.616;2023-03-19T05:27:45;9.27;;;6.20;;
9224;SDS011;4647;48.072;11.616;2023-03-19T05:30:17;10.60;;;6.03;;
9224;SDS011;4647;48.072;11.616;2023-03-19T05:32:45;7.77;;;6.20;;
9224;SDS011;4647;48.072;11.616;2023-03-19T05:35:14;10.23;;;6.33;;
9224;SDS011;4647;48.072;11.616;2023-03-19T05:37:43;8.60;;;6.20;;
9224;SDS011;4647;48.072;11.616;2023-03-19T05:40:12;8.83;;;6.20;;
9224;SDS011;4647;48.072;11.616;2023-03-19T05:42:41;8.83;;;5.77;;
9224;SDS011;4647;48.072;11.616;2023-03-19T05:45:10;9.50;;;6.27;;
9224;SDS011;4647;48.072;11.616;2023-03-19T05:47:41;9.63;;;6.50;;
9224;SDS011;4647;48.072;11.616;2023-03-19T05:50:10;11.57;;;5.80;;
9224;SDS011;4647;48.072;11.616;2023-03-19T05:52:38;7.53;;;5.80;;
9224;SDS011;4647;48.072;11.616;2023-03-19T05:55:07;7.90;;;5.80;;
9224;SDS011;4647;48.072;11.616;2023-03-19T05:57:36;9.00;;;5.50;;
9224;SDS011;4647;48.072;11.616;2023-03-19T06:00:05;9.77;;;5.90;;
9224;SDS011;4647;48.072;11.616;2023-03-19T06:02:35;11.67;;;6.00;;
9224;SDS011;4647;48.072;11.616;2023-03-19T06:05:08;10.13;;;6.00;;
9224;SDS011;4647;48.072;11.616;2023-03-19T06:07:37;8.37;;;5.77;;
9224;SDS011;4647;48.072;11.616;2023-03-19T06:10:08;8.57;;;5.90;;
9224;SDS011;4647;48.072;11.616;2023-03-19T06:12:37;10.10;;;6.50;;
9224;SDS011;4647;48.072;11.616;2023-03-19T06:15:06;11.03;;;7.07;;
9224;SDS011;4647;48.072;11.616;2023-03-19T06:17:36;8.27;;;6.30;;
9224;SDS011;4647;48.072;11.616;2023-03-19T06:20:09;8.77;;;6.33;;
9224;SDS011;4647;48.072;11.616;2023-03-19T06:22:39;9.23;;;7.10;;
9224;SDS011;4647;48.072;11.616;2023-03-19T06:25:07;7.93;;;6.53;;
9224;SDS011;4647;48.072;11.616;2023-03-19T06:27:37;10.87;;;6.73;;
9224;SDS011;4647;48.072;11.616;2023-03-19T06:30:06;11.70;;;7.53;;
9224;SDS011;4647;48.072;11.616;2023-03-19T06:32:36;9.53;;;7.27;;
9224;SDS011;4647;48.072;11.616;2023-03-19T06:35:08;12.93;;;7.80;;
9224;SDS011;4647;48.072;11.616;2023-03-19T06:37:37;11.23;;;7.40;;
9224;SDS011;4647;48.072;11.616;2023-03-19T06:40:06;11.67;;;7.80;;
9224;SDS011;4647;48.072;11.616;2023-03-19T06:42:36;11.47;;;7.63;;
9224;SDS011;4647;48.072;11.616;2023-03-19T06:45:05;8.90;;;7.40;;
9224;SDS011;4647;48.072;11.616;2023-03-19T06:47:34;12.17;;;7.77;;
9224;SDS011;4647;48.072;11.616;2023-03-19T06:50:03;10.43;;;7.73;;
9224;SDS011;4647;48.072;11.616;2023-03-19T06:52:34;8.50;;;7.17;;
9224;SDS011;4647;48.072;11.616;2023-03-19T06:55:03;8.13;;;7.30;;
9224;SDS011;4647;48.072;11.616;2023-03-19T06:57:33;11.73;;;7.33;;
9224;SDS011;4647;48.072;11.616;2023-03-19T07:00:02;11.40;;;8.03;;
9224;SDS011;4647;48.072;11.616;2023-03-19T07:02:32;10.53;;;7.47;;
9224;SDS011;4647;48.072;11.616;2023-03-19T07:05:01;8.07;;;6.80;;
9224;SDS011;4647;48.072;11.616;2023-03-19T07:07:30;8.87;;;6.77;;
9224;SDS011;4647;48.072;11.616;2023-03-19T07:10:01;9.23;;;6.63;;
9224;SDS011;4647;48.072;11.616;2023-03-19T07:12:29;10.17;;;6.90;;
9224;SDS011;4647;48.072;11.616;2023-03-19T07:14:57;8.73;;;6.90;;
9224;SDS011;4647;48.072;11.616;2023-03-19T07:17:26;8.87;;;6.83;;
9224;SDS011;4647;48.072;11.616;2023-03-19T07:19:55;8.97;;;6.90;;
9224;SDS011;4647;48.072;11.616;2023-03-19T07:22:23;10.60;;;6.73;;
9224;SDS011;4647;48.072;11.616;2023-03-19T07:24:52;9.57;;;6.47;;
9224;SDS011;4647;48.072;11.616;2023-03-19T07:27:23;11.30;;;6.33;;
9224;SDS011;4647;48.072;11.616;2023-03-19T07:29:51;8.20;;;6.33;;
9224;SDS011;4647;48.072;11.616;2023-03-19T07:32:20;9.20;;;6.43;;
9224;SDS011;4647;48.072;11.616;2023-03-19T07:34:48;10.40;;;6.77;;
9224;SDS011;4647;48.072;11.616;2023-03-19T07:37:17;7.33;;;6.13;;
9224;SDS011;4647;48.072;11.616;2023-03-19T07:39:45;8.53;;;5.97;;
9224;SDS011;4647;48.072;11.616;2023-03-19T07:42:14;10.93;;;5.70;;
9224;SDS011;4647;48.072;11.616;2023-03-19T07:44:45;6.60;;;5.77;;
9224;SDS011;4647;48.072;11.616;2023-03-19T07:47:13;9.20;;;5.70;;
9224;SDS011;4647;48.072;11.616;2023-03-19T07:49:42;8.40;;;5.70;;
9224;SDS011;4647;48.072;11.616;2023-03-19T07:52:10;6.77;;;5.37;;
9224;SDS011;4647;48.072;11.616;2023-03-19T07:54:39;7.50;;;5.10;;
9224;SDS011;4647;48.072;11.616;2023-03-19T07:57:07;5.50;;;4.87;;
9224;SDS011;4647;48.072;11.616;2023-03-19T07:59:36;7.73;;;4.60;;
9224;SDS011;4647;48.072;11.616;2023-03-19T08:02:07;7.03;;;5.20;;
9224;SDS011;4647;48.072;11.616;2023-03-19T08:04:37;5.80;;;4.30;;
9224;SDS011;4647;48.072;11.616;2023-03-19T08:07:07;5.63;;;4.33;;
9224;SDS011;4647;48.072;11.616;2023-03-19T08:09:37;7.90;;;4.67;;
9224;SDS011;4647;48.072;11.616;2023-03-19T08:12:06;6.50;;;4.43;;
9224;SDS011;4647;48.072;11.616;2023-03-19T08:14:35;6.80;;;4.63;;
9224;SDS011;4647;48.072;11.616;2023-03-19T08:17:07;6.23;;;4.17;;
9224;SDS011;4647;48.072;11.616;2023-03-19T08:19:35;6.23;;;4.80;;
9224;SDS011;4647;48.072;11.616;2023-03-19T08:22:04;6.47;;;5.03;;
9224;SDS011;4647;48.072;11.616;2023-03-19T08:24:33;6.70;;;4.40;;
9224;SDS011;4647;48.072;11.616;2023-03-19T08:27:01;9.87;;;4.63;;
9224;SDS011;4647;48.072;11.616;2023-03-19T08:29:30;8.87;;;6.23;;
9224;SDS011;4647;48.072;11.616;2023-03-19T08:31:58;5.47;;;4.70;;
9224;SDS011;4647;48.072;11.616;2023-03-19T08:34:30;11.27;;;6.37;;
9224;SDS011;4647;48.072;11.616;2023-03-19T08:37:00;9.30;;;6.20;;
9224;SDS011;4647;48.072;11.616;2023-03-19T08:39:28;8.80;;;5.13;;
9224;SDS011;4647;48.072;11.616;2023-03-19T08:41:57;7.17;;;4.50;;
9224;SDS011;4647;48.072;11.616;2023-03-19T08:44:25;11.10;;;6.77;;
9224;SDS011;4647;48.072;11.616;2023-03-19T08:46:54;5.07;;;4.20;;
9224;SDS011;4647;48.072;11.616;2023-03-19T08:49:22;6.87;;;4.43;;
9224;SDS011;4647;48.072;11.616;2023-03-19T08:51:53;6.23;;;4.40;;
9224;SDS011;4647;48.072;11.616;2023-03-19T08:54:22;6.43;;;4.20;;
9224;SDS011;4647;48.072;11.616;2023-03-19T08:56:50;6.80;;;4.30;;
9224;SDS011;4647;48.072;11.616;2023-03-19T08:59:19;6.13;;;4.30;;
9224;SDS011;4647;48.072;11.616;2023-03-19T09:01:49;6.50;;;4.43;;
9224;SDS011;4647;48.072;11.616;2023-03-19T09:04:18;6.57;;;4.57;;
9224;SDS011;4647;48.072;11.616;2023-03-19T09:06:47;6.13;;;4.17;;
9224;SDS011;4647;48.072;11.616;2023-03-19T09:09:19;4.60;;;3.90;;
9224;SDS011;4647;48.072;11.616;2023-03-19T09:11:48;4.60;;;3.67;;
9224;SDS011;4647;48.072;11.616;2023-03-19T09:14:17;5.80;;;3.80;;
9224;SDS011;4647;48.072;11.616;2023-03-19T09:16:47;7.87;;;4.30;;
9224;SDS011;4647;48.072;11.616;2023-03-19T09:19:16;4.63;;;3.83;;
9224;SDS011;4647;48.072;11.616;2023-03-19T09:21:44;5.43;;;3.87;;
9224;SDS011;4647;48.072;11.616;2023-03-19T09:24:13;6.80;;;4.03;;
9224;SDS011;4647;48.072;11.616;2023-03-19T09:26:45;6.90;;;4.23;;
9224;SDS011;4647;48.072;11.616;2023-03-19T09:29:14;13.77;;;8.30;;
9224;SDS011;4647;48.072;11.616;2023-03-19T09:31:43;6.60;;;4.20;;
9224;SDS011;4647;48.072;11.616;2023-03-19T09:34:12;7.20;;;3.93;;
9224;SDS011;4647;48.072;11.616;2023-03-19T09:36:40;28.47;;;13.30;;
9224;SDS011;4647;48.072;11.616;2023-03-19T09:39:09;4.83;;;3.50;;
9224;SDS011;4647;48.072;11.616;2023-03-19T09:41:39;6.00;;;3.70;;
9224;SDS011;4647;48.072;11.616;2023-03-19T09:44:26;5.73;;;3.60;;
9224;SDS011;4647;48.072;11.616;2023-03-19T09:46:57;4.67;;;4.00;;
9224;SDS011;4647;48.072;11.616;2023-03-19T09:49:35;4.07;;;3.40;;
9224;SDS011;4647;48.072;11.616;2023-03-19T09:52:09;3.87;;;3.30;;
9224;SDS011;4647;48.072;11.616;2023-03-19T09:54:48;4.27;;;3.20;;
9224;SDS011;4647;48.072;11.616;2023-03-19T09:57:21;5.87;;;3.50;;
9224;SDS011;4647;48.072;11.616;2023-03-19T09:59:50;5.93;;;3.80;;
9224;SDS011;4647;48.072;11.616;2023-03-19T10:02:32;5.53;;;3.47;;
9224;SDS011;4647;48.072;11.616;2023-03-19T10:05:10;5.27;;;3.60;;
9224;SDS011;4647;48.072;11.616;2023-03-19T10:07:49;6.87;;;3.67;;
9224;SDS011;4647;48.072;11.616;2023-03-19T10:10:34;5.43;;;3.97;;
9224;SDS011;4647;48.072;11.616;2023-03-19T10:13:16;6.63;;;3.80;;
9224;SDS011;4647;48.072;11.616;2023-03-19T10:15:53;5.93;;;3.70;;
9224;SDS011;4647;48.072;11.616;2023-03-19T10:18:23;7.17;;;3.73;;
9224;SDS011;4647;48.072;11.616;2023-03-19T10:20:56;5.23;;;3.70;;
9224;SDS011;4647;48.072;11.616;2023-03-19T10:23:31;6.73;;;3.43;;
9224;SDS011;4647;48.072;11.616;2023-03-19T10:26:08;4.90;;;3.80;;
9224;SDS011;4647;48.072;11.616;2023-03-19T10:28:41;6.27;;;3.70;;
9224;SDS011;4647;48.072;11.616;2023-03-19T10:31:21;4.67;;;3.63;;
9224;SDS011;4647;48.072;11.616;2023-03-19T10:36:41;5.47;;;3.83;;
9224;SDS011;4647;48.072;11.616;2023-03-19T10:39:10;5.20;;;3.90;;
9224;SDS011;4647;48.072;11.616;2023-03-19T10:41:47;3.63;;;3.07;;
9224;SDS011;4647;48.072;11.616;2023-03-19T10:44:30;7.17;;;3.60;;
9224;SDS011;4647;48.072;11.616;2023-03-19T10:47:08;5.23;;;3.13;;
9224;SDS011;4647;48.072;11.616;2023-03-19T10:49:38;5.77;;;3.37;;
9224;SDS011;4647;48.072;11.616;2023-03-19T10:52:15;4.03;;;3.07;;
9224;SDS011;4647;48.072;11.616;2023-03-19T10:54:52;5.60;;;3.70;;
9224;SDS011;4647;48.072;11.616;2023-03-19T10:57:25;3.57;;;2.93;;
9224;SDS011;4647;48.072;11.616;2023-03-19T10:59:58;3.53;;;3.00;;
9224;SDS011;4647;48.072;11.616;2023-03-19T11:02:31;4.97;;;3.30;;
9224;SDS011;4647;48.072;11.616;2023-03-19T11:05:06;4.77;;;2.90;;
9224;SDS011;4647;48.072;11.616;2023-03-19T11:07:48;6.17;;;3.47;;
9224;SDS011;4647;48.072;11.616;2023-03-19T11:10:18;5.57;;;3.20;;
9224;SDS011;4647;48.072;11.616;2023-03-19T11:12:51;5.67;;;3.00;;
9224;SDS011;4647;48.072;11.616;2023-03-19T11:15:25;3.80;;;2.90;;
9224;SDS011;4647;48.072;11.616;2023-03-19T11:18:00;6.10;;;3.30;;
9224;SDS011;4647;48.072;11.616;2023-03-19T11:20:35;3.87;;;3.17;;
9224;SDS011;4647;48.072;11.616;2023-03-19T11:23:06;5.63;;;3.20;;
9224;SDS011;4647;48.072;11.616;2023-03-19T11:25:41;4.17;;;2.67;;
9224;SDS011;4647;48.072;11.616;2023-03-19T11:28:14;7.00;;;2.80;;
9224;SDS011;4647;48.072;11.616;2023-03-19T11:30:52;4.17;;;2.90;;
9224;SDS011;4647;48.072;11.616;2023-03-19T11:33:35;4.33;;;3.23;;
9224;SDS011;4647;48.072;11.616;2023-03-19T11:36:14;3.80;;;2.83;;
9224;SDS011;4647;48.072;11.616;2023-03-19T11:38:54;5.43;;;2.50;;
9224;SDS011;4647;48.072;11.616;2023-03-19T11:41:34;3.80;;;2.73;;
9224;SDS011;4647;48.072;11.616;2023-03-19T11:44:15;3.80;;;2.80;;
9224;SDS011;4647;48.072;11.616;2023-03-19T11:46:52;5.13;;;2.80;;
9224;SDS011;4647;48.072;11.616;2023-03-19T11:52:22;4.70;;;2.80;;
9224;SDS011;4647;48.072;11.616;2023-03-19T11:55:01;2.80;;;2.50;;
9224;SDS011;4647;48.072;11.616;2023-03-19T11:57:45;3.27;;;2.60;;
9224;SDS011;4647;48.072;11.616;2023-03-19T12:00:35;6.77;;;2.80;;
9224;SDS011;4647;48.072;11.616;2023-03-19T12:06:14;3.00;;;2.70;;
9224;SDS011;4647;48.072;11.616;2023-03-19T12:08:53;6.00;;;2.90;;
9224;SDS011;4647;48.072;11.616;2023-03-19T12:11:30;3.93;;;2.40;;
9224;SDS011;4647;48.072;11.616;2023-03-19T12:14:06;5.17;;;3.00;;
9224;SDS011;4647;48.072;11.616;2023-03-19T12:16:47;5.73;;;3.10;;
9224;SDS011;4647;48.072;11.616;2023-03-19T12:19:47;4.93;;;2.90;;
9224;SDS011;4647;48.072;11.616;2023-03-19T12:22:37;4.53;;;2.83;;
9224;SDS011;4647;48.072;11.616;2023-03-19T12:25:21;4.50;;;2.90;;
9224;SDS011;4647;48.072;11.616;2023-03-19T12:27:57;5.80;;;3.23;;
9224;SDS011;4647;48.072;11.616;2023-03-19T12:30:32;5.53;;;3.10;;
9224;SDS011;4647;48.072;11.616;2023-03-19T12:33:09;4.10;;;3.07;;
9224;SDS011;4647;48.072;11.616;2023-03-19T12:35:42;4.23;;;2.73;;
9224;SDS011;4647;48.072;11.616;2023-03-19T12:38:19;7.47;;;3.67;;
9224;SDS011;4647;48.072;11.616;2023-03-19T12:40:55;4.90;;;2.90;;
9224;SDS011;4647;48.072;11.616;2023-03-19T12:43:29;4.30;;;3.10;;
9224;SDS011;4647;48.072;11.616;2023-03-19T12:46:03;3.70;;;3.00;;
9224;SDS011;4647;48.072;11.616;2023-03-19T12:48:38;5.77;;;3.00;;
9224;SDS011;4647;48.072;11.616;2023-03-19T12:51:11;4.93;;;2.90;;
9224;SDS011;4647;48.072;11.616;2023-03-19T12:53:47;3.93;;;3.17;;
9224;SDS011;4647;48.072;11.616;2023-03-19T12:56:23;3.97;;;2.80;;
9224;SDS011;4647;48.072;11.616;2023-03-19T12:58:58;4.47;;;2.80;;
9224;SDS011;4647;48.072;11.616;2023-03-19T13:01:34;3.43;;;2.90;;
9224;SDS011;4647;48.072;11.616;2023-03-19T13:04:07;4.53;;;2.87;;
9224;SDS011;4647;48.072;11.616;2023-03-19T13:06:42;4.40;;;3.00;;
9224;SDS011;4647;48.072;11.616;2023-03-19T13:09:23;4.60;;;3.10;;
9224;SDS011;4647;48.072;11.616;2023-03-19T13:11:57;4.33;;;3.13;;
9224;SDS011;4647;48.072;11.616;2023-03-19T13:14:30;4.67;;;3.00;;
9224;SDS011;4647;48.072;11.616;2023-03-19T13:17:07;3.23;;;2.57;;
9224;SDS011;4647;48.072;11.616;2023-03-19T13:19:44;6.57;;;2.70;;
9224;SDS011;4647;48.072;11.616;2023-03-19T13:22:18;5.67;;;2.93;;
9224;SDS011;4647;48.072;11.616;2023-03-19T13:24:51;6.67;;;2.63;;
9224;SDS011;4647;48.072;11.616;2023-03-19T13:27:22;3.57;;;2.47;;
9224;SDS011;4647;48.072;11.616;2023-03-19T13:29:58;3.77;;;2.20;;
9224;SDS011;4647;48.072;11.616;2023-03-19T13:32:33;3.20;;;2.40;;
9224;SDS011;4647;48.072;11.616;2023-03-19T13:35:07;5.33;;;2.53;;
9224;SDS011;4647;48.072;11.616;2023-03-19T13:37:44;3.87;;;2.93;;
9224;SDS011;4647;48.072;11.616;2023-03-19T13:49:09;3.27;;;2.33;;
9224;SDS011;4647;48.072;11.616;2023-03-19T13:52:01;5.47;;;2.50;;
9224;SDS011;4647;48.072;11.616;2023-03-19T13:54:45;3.93;;;2.70;;
9224;SDS011;4647;48.072;11.616;2023-03-19T13:57:20;4.40;;;2.67;;
9224;SDS011;4647;48.072;11.616;2023-03-19T14:02:59;3.40;;;2.60;;
9224;SDS011;4647;48.072;11.616;2023-03-19T14:05:32;5.23;;;2.50;;
9224;SDS011;4647;48.072;11.616;2023-03-19T14:08:12;2.73;;;2.30;;
9224;SDS011;4647;48.072;11.616;2023-03-19T14:10:45;2.70;;;2.33;;
9224;SDS011;4647;48.072;11.616;2023-03-19T14:13:19;2.70;;;2.27;;
9224;SDS011;4647;48.072;11.616;2023-03-19T14:15:54;5.10;;;2.90;;
9224;SDS011;4647;48.072;11.616;2023-03-19T14:18:32;6.43;;;3.00;;
9224;SDS011;4647;48.072;11.616;2023-03-19T14:21:08;5.03;;;2.50;;
9224;SDS011;4647;48.072;11.616;2023-03-19T14:23:38;3.87;;;2.70;;
9224;SDS011;4647;48.072;11.616;2023-03-19T14:26:15;5.10;;;2.80;;
9224;SDS011;4647;48.072;11.616;2023-03-19T14:28:59;3.70;;;2.30;;
9224;SDS011;4647;48.072;11.616;2023-03-19T14:31:33;3.47;;;2.67;;
9224;SDS011;4647;48.072;11.616;2023-03-19T14:34:14;3.97;;;2.50;;
9224;SDS011;4647;48.072;11.616;2023-03-19T14:36:48;7.43;;;3.10;;
9224;SDS011;4647;48.072;11.616;2023-03-19T14:39:25;4.47;;;2.77;;
9224;SDS011;4647;48.072;11.616;2023-03-19T14:42:00;4.30;;;2.67;;
9224;SDS011;4647;48.072;11.616;2023-03-19T14:44:43;4.87;;;2.97;;
9224;SDS011;4647;48.072;11.616;2023-03-19T14:47:46;5.37;;;3.30;;
9224;SDS011;4647;48.072;11.616;2023-03-19T14:50:32;4.37;;;2.90;;
9224;SDS011;4647;48.072;11.616;2023-03-19T14:53:09;4.63;;;2.80;;
9224;SDS011;4647;48.072;11.616;2023-03-19T14:55:41;4.07;;;2.77;;
9224;SDS011;4647;48.072;11.616;2023-03-19T14:58:16;3.67;;;3.07;;
9224;SDS011;4647;48.072;11.616;2023-03-19T15:00:51;5.37;;;2.70;;
9224;SDS011;4647;48.072;11.616;2023-03-19T15:03:22;5.03;;;3.00;;
9224;SDS011;4647;48.072;11.616;2023-03-19T15:05:57;3.60;;;2.80;;
9224;SDS011;4647;48.072;11.616;2023-03-19T15:08:29;4.40;;;2.90;;
9224;SDS011;4647;48.072;11.616;2023-03-19T15:11:05;4.23;;;2.90;;
9224;SDS011;4647;48.072;11.616;2023-03-19T15:13:51;3.33;;;2.80;;
9224;SDS011;4647;48.072;11.616;2023-03-19T15:16:36;4.37;;;3.13;;
9224;SDS011;4647;48.072;11.616;2023-03-19T15:19:13;4.20;;;2.80;;
9224;SDS011;4647;48.072;11.616;2023-03-19T15:21:50;2.90;;;2.60;;
9224;SDS011;4647;48.072;11.616;2023-03-19T15:24:18;4.20;;;3.00;;
9224;SDS011;4647;48.072;11.616;2023-03-19T15:26:48;3.77;;;2.70;;
9224;SDS011;4647;48.072;11.616;2023-03-19T15:29:16;5.20;;;2.73;;
9224;SDS011;4647;48.072;11.616;2023-03-19T15:31:59;5.47;;;3.03;;
9224;SDS011;4647;48.072;11.616;2023-03-19T15:34:27;4.53;;;2.90;;
9224;SDS011;4647;48.072;11.616;2023-03-19T15:36:57;3.67;;;2.80;;
9224;SDS011;4647;48.072;11.616;2023-03-19T15:39:33;4.23;;;2.73;;
9224;SDS011;4647;48.072;11.616;2023-03-19T15:42:05;3.60;;;2.63;;
9224;SDS011;4647;48.072;11.616;2023-03-19T15:44:34;4.43;;;2.87;;
9224;SDS011;4647;48.072;11.616;2023-03-19T15:47:09;5.23;;;2.63;;